sensor_id;sensor_type;location;lat;lon;timestamp;P1;durP1;ratioP1;P2;durP2;ratioP2
7703;SDS011;3894;49.700;10.770;2023-06-10T00:00:19;7.75;;;4.70;;
7703;SDS011;3894;49.700;10.770;2023-06-10T00:02:45;9.20;;;4.60;;
7703;SDS011;3894;49.700;10.770;2023-06-10T00:05:11;7.68;;;4.78;;
7703;SDS011;3894;49.700;10.770;2023-06-10T00:07:36;8.10;;;4.88;;
7703;SDS011;3894;49.700;10.770;2023-06-10T00:10:06;8.25;;;4.50;;
7703;SDS011;3894;49.700;10.770;2023-06-10T00:12:33;9.13;;;4.63;;
7703;SDS011;3894;49.700;10.770;2023-06-10T00:15:02;7.25;;;4.35;;
7703;SDS011;3894;49.700;10.770;2023-06-10T00:17:30;7.28;;;3.67;;
7703;SDS011;3894;49.700;10.770;2023-06-10T00:19:56;7.03;;;4.20;;
7703;SDS011;3894;49.700;10.770;2023-06-10T00:22:22;7.63;;;3.92;;
7703;SDS011;3894;49.700;10.770;2023-06-10T00:24:49;9.45;;;4.55;;
7703;SDS011;3894;49.700;10.770;2023-06-10T00:27:15;7.20;;;4.22;;
7703;SDS011;3894;49.700;10.770;2023-06-10T00:29:42;8.35;;;4.75;;
7703;SDS011;3894;49.700;10.770;2023-06-10T00:32:07;9.27;;;4.70;;
7703;SDS011;3894;49.700;10.770;2023-06-10T00:34:33;8.32;;;5.03;;
7703;SDS011;3894;49.700;10.770;2023-06-10T00:36:58;8.00;;;4.68;;
7703;SDS011;3894;49.700;10.770;2023-06-10T00:39:25;8.18;;;4.78;;
7703;SDS011;3894;49.700;10.770;2023-06-10T00:41:51;8.32;;;4.53;;
7703;SDS011;3894;49.700;10.770;2023-06-10T00:44:17;8.80;;;5.10;;
7703;SDS011;3894;49.700;10.770;2023-06-10T00:46:42;8.13;;;4.65;;
7703;SDS011;3894;49.700;10.770;2023-06-10T00:49:08;8.35;;;4.93;;
7703;SDS011;3894;49.700;10.770;2023-06-10T00:51:34;9.45;;;5.18;;
7703;SDS011;3894;49.700;10.770;2023-06-10T00:54:01;7.35;;;4.15;;
7703;SDS011;3894;49.700;10.770;2023-06-10T00:56:28;8.77;;;5.18;;
7703;SDS011;3894;49.700;10.770;2023-06-10T00:58:53;7.78;;;4.63;;
7703;SDS011;3894;49.700;10.770;2023-06-10T01:01:19;9.25;;;5.40;;
7703;SDS011;3894;49.700;10.770;2023-06-10T01:03:45;8.15;;;5.40;;
7703;SDS011;3894;49.700;10.770;2023-06-10T01:09:22;8.75;;;4.57;;
7703;SDS011;3894;49.700;10.770;2023-06-10T01:12:19;7.63;;;4.50;;
7703;SDS011;3894;49.700;10.770;2023-06-10T01:15:06;7.97;;;4.65;;
7703;SDS011;3894;49.700;10.770;2023-06-10T01:17:33;7.63;;;4.80;;
7703;SDS011;3894;49.700;10.770;2023-06-10T01:19:59;8.15;;;5.03;;
7703;SDS011;3894;49.700;10.770;2023-06-10T01:22:27;8.63;;;5.30;;
7703;SDS011;3894;49.700;10.770;2023-06-10T01:24:53;9.95;;;5.47;;
7703;SDS011;3894;49.700;10.770;2023-06-10T01:27:23;8.68;;;5.43;;
7703;SDS011;3894;49.700;10.770;2023-06-10T01:29:54;12.82;;;5.35;;
7703;SDS011;3894;49.700;10.770;2023-06-10T01:32:43;7.97;;;4.68;;
7703;SDS011;3894;49.700;10.770;2023-06-10T01:35:11;8.60;;;4.93;;
7703;SDS011;3894;49.700;10.770;2023-06-10T01:37:38;8.57;;;4.90;;
7703;SDS011;3894;49.700;10.770;2023-06-10T01:40:06;8.60;;;4.60;;
7703;SDS011;3894;49.700;10.770;2023-06-10T01:42:33;7.70;;;4.75;;
7703;SDS011;3894;49.700;10.770;2023-06-10T01:45:00;9.70;;;4.25;;
7703;SDS011;3894;49.700;10.770;2023-06-10T01:47:26;8.75;;;5.30;;
7703;SDS011;3894;49.700;10.770;2023-06-10T01:49:52;8.45;;;4.80;;
7703;SDS011;3894;49.700;10.770;2023-06-10T01:52:17;9.70;;;5.80;;
7703;SDS011;3894;49.700;10.770;2023-06-10T01:54:43;8.30;;;4.65;;
7703;SDS011;3894;49.700;10.770;2023-06-10T01:57:08;8.13;;;5.30;;
7703;SDS011;3894;49.700;10.770;2023-06-10T01:59:35;8.80;;;5.22;;
7703;SDS011;3894;49.700;10.770;2023-06-10T02:02:02;9.52;;;5.15;;
7703;SDS011;3894;49.700;10.770;2023-06-10T02:04:28;8.35;;;5.43;;
7703;SDS011;3894;49.700;10.770;2023-06-10T02:06:54;9.15;;;5.20;;
7703;SDS011;3894;49.700;10.770;2023-06-10T02:09:20;12.30;;;5.63;;
7703;SDS011;3894;49.700;10.770;2023-06-10T02:11:48;8.60;;;4.82;;
7703;SDS011;3894;49.700;10.770;2023-06-10T02:14:14;8.02;;;4.85;;
7703;SDS011;3894;49.700;10.770;2023-06-10T02:16:40;9.60;;;5.45;;
7703;SDS011;3894;49.700;10.770;2023-06-10T02:19:05;8.95;;;5.53;;
7703;SDS011;3894;49.700;10.770;2023-06-10T02:21:32;10.88;;;5.20;;
7703;SDS011;3894;49.700;10.770;2023-06-10T02:23:59;9.50;;;5.60;;
7703;SDS011;3894;49.700;10.770;2023-06-10T02:26:25;9.02;;;5.80;;
7703;SDS011;3894;49.700;10.770;2023-06-10T02:28:51;10.18;;;5.78;;
7703;SDS011;3894;49.700;10.770;2023-06-10T02:31:17;10.82;;;6.07;;
7703;SDS011;3894;49.700;10.770;2023-06-10T02:33:43;11.35;;;5.53;;
7703;SDS011;3894;49.700;10.770;2023-06-10T02:36:11;9.30;;;5.70;;
7703;SDS011;3894;49.700;10.770;2023-06-10T02:38:40;9.57;;;5.05;;
7703;SDS011;3894;49.700;10.770;2023-06-10T02:41:07;8.52;;;5.40;;
7703;SDS011;3894;49.700;10.770;2023-06-10T02:43:33;9.60;;;5.60;;
7703;SDS011;3894;49.700;10.770;2023-06-10T02:46:00;10.02;;;5.70;;
7703;SDS011;3894;49.700;10.770;2023-06-10T02:48:26;9.32;;;5.68;;
7703;SDS011;3894;49.700;10.770;2023-06-10T02:50:53;9.50;;;6.10;;
7703;SDS011;3894;49.700;10.770;2023-06-10T02:53:18;9.32;;;5.75;;
7703;SDS011;3894;49.700;10.770;2023-06-10T02:55:47;8.10;;;4.65;;
7703;SDS011;3894;49.700;10.770;2023-06-10T02:58:14;10.02;;;5.63;;
7703;SDS011;3894;49.700;10.770;2023-06-10T03:00:40;9.90;;;6.43;;
7703;SDS011;3894;49.700;10.770;2023-06-10T03:03:06;10.85;;;5.57;;
7703;SDS011;3894;49.700;10.770;2023-06-10T03:05:32;10.40;;;6.00;;
7703;SDS011;3894;49.700;10.770;2023-06-10T03:07:57;10.48;;;5.82;;
7703;SDS011;3894;49.700;10.770;2023-06-10T03:10:23;9.27;;;5.63;;
7703;SDS011;3894;49.700;10.770;2023-06-10T03:12:49;9.52;;;5.53;;
7703;SDS011;3894;49.700;10.770;2023-06-10T03:15:14;9.88;;;5.75;;
7703;SDS011;3894;49.700;10.770;2023-06-10T03:17:40;8.48;;;5.72;;
7703;SDS011;3894;49.700;10.770;2023-06-10T03:20:07;11.30;;;6.20;;
7703;SDS011;3894;49.700;10.770;2023-06-10T03:22:35;9.82;;;6.53;;
7703;SDS011;3894;49.700;10.770;2023-06-10T03:25:01;11.57;;;5.78;;
7703;SDS011;3894;49.700;10.770;2023-06-10T03:27:26;8.32;;;4.95;;
7703;SDS011;3894;49.700;10.770;2023-06-10T03:29:54;10.85;;;5.38;;
7703;SDS011;3894;49.700;10.770;2023-06-10T03:32:19;11.18;;;6.32;;
7703;SDS011;3894;49.700;10.770;2023-06-10T03:34:45;11.77;;;5.97;;
7703;SDS011;3894;49.700;10.770;2023-06-10T03:37:12;12.00;;;6.35;;
7703;SDS011;3894;49.700;10.770;2023-06-10T03:39:38;10.55;;;6.05;;
7703;SDS011;3894;49.700;10.770;2023-06-10T03:42:04;11.20;;;5.75;;
7703;SDS011;3894;49.700;10.770;2023-06-10T03:44:30;10.05;;;5.60;;
7703;SDS011;3894;49.700;10.770;2023-06-10T03:46:56;10.55;;;5.72;;
7703;SDS011;3894;49.700;10.770;2023-06-10T03:49:22;9.75;;;4.88;;
7703;SDS011;3894;49.700;10.770;2023-06-10T03:51:52;9.65;;;5.53;;
7703;SDS011;3894;49.700;10.770;2023-06-10T03:54:17;9.32;;;5.60;;
7703;SDS011;3894;49.700;10.770;2023-06-10T03:56:43;8.57;;;5.53;;
7703;SDS011;3894;49.700;10.770;2023-06-10T03:59:09;10.10;;;6.97;;
7703;SDS011;3894;49.700;10.770;2023-06-10T04:01:35;10.07;;;6.30;;
7703;SDS011;3894;49.700;10.770;2023-06-10T04:04:02;12.55;;;6.78;;
7703;SDS011;3894;49.700;10.770;2023-06-10T04:06:28;9.95;;;5.97;;
7703;SDS011;3894;49.700;10.770;2023-06-10T04:08:54;11.57;;;5.53;;
7703;SDS011;3894;49.700;10.770;2023-06-10T04:11:21;9.55;;;5.45;;
7703;SDS011;3894;49.700;10.770;2023-06-10T04:13:48;10.45;;;5.85;;
7703;SDS011;3894;49.700;10.770;2023-06-10T04:16:14;9.88;;;6.07;;
7703;SDS011;3894;49.700;10.770;2023-06-10T04:18:41;13.10;;;6.35;;
7703;SDS011;3894;49.700;10.770;2023-06-10T04:21:07;11.73;;;6.03;;
7703;SDS011;3894;49.700;10.770;2023-06-10T04:23:34;10.00;;;6.57;;
7703;SDS011;3894;49.700;10.770;2023-06-10T04:26:01;11.07;;;6.68;;
7703;SDS011;3894;49.700;10.770;2023-06-10T04:28:27;10.45;;;6.63;;
7703;SDS011;3894;49.700;10.770;2023-06-10T04:30:53;10.13;;;6.50;;
7703;SDS011;3894;49.700;10.770;2023-06-10T04:33:18;10.45;;;6.60;;
7703;SDS011;3894;49.700;10.770;2023-06-10T04:35:44;10.35;;;5.78;;
7703;SDS011;3894;49.700;10.770;2023-06-10T04:38:12;12.23;;;6.25;;
7703;SDS011;3894;49.700;10.770;2023-06-10T04:40:39;12.77;;;7.07;;
7703;SDS011;3894;49.700;10.770;2023-06-10T04:43:05;11.02;;;6.68;;
7703;SDS011;3894;49.700;10.770;2023-06-10T04:45:32;11.98;;;6.32;;
7703;SDS011;3894;49.700;10.770;2023-06-10T04:47:58;11.15;;;6.97;;
7703;SDS011;3894;49.700;10.770;2023-06-10T04:50:23;10.85;;;6.47;;
7703;SDS011;3894;49.700;10.770;2023-06-10T04:52:50;11.68;;;7.30;;
7703;SDS011;3894;49.700;10.770;2023-06-10T04:55:16;11.77;;;7.47;;
7703;SDS011;3894;49.700;10.770;2023-06-10T04:57:41;12.45;;;7.53;;
7703;SDS011;3894;49.700;10.770;2023-06-10T05:00:07;11.15;;;6.72;;
7703;SDS011;3894;49.700;10.770;2023-06-10T05:02:33;11.93;;;7.65;;
7703;SDS011;3894;49.700;10.770;2023-06-10T05:04:59;10.98;;;6.68;;
7703;SDS011;3894;49.700;10.770;2023-06-10T05:07:25;11.27;;;7.07;;
7703;SDS011;3894;49.700;10.770;2023-06-10T05:09:50;10.10;;;6.32;;
7703;SDS011;3894;49.700;10.770;2023-06-10T05:12:16;13.95;;;6.93;;
7703;SDS011;3894;49.700;10.770;2023-06-10T05:14:42;13.10;;;7.43;;
7703;SDS011;3894;49.700;10.770;2023-06-10T05:17:09;12.38;;;7.68;;
7703;SDS011;3894;49.700;10.770;2023-06-10T05:19:36;12.25;;;7.60;;
7703;SDS011;3894;49.700;10.770;2023-06-10T05:22:02;11.20;;;7.85;;
7703;SDS011;3894;49.700;10.770;2023-06-10T05:24:28;11.30;;;7.07;;
7703;SDS011;3894;49.700;10.770;2023-06-10T05:26:55;11.48;;;7.40;;
7703;SDS011;3894;49.700;10.770;2023-06-10T05:29:22;12.48;;;8.20;;
7703;SDS011;3894;49.700;10.770;2023-06-10T05:31:48;13.77;;;8.23;;
7703;SDS011;3894;49.700;10.770;2023-06-10T05:34:13;12.68;;;7.55;;
7703;SDS011;3894;49.700;10.770;2023-06-10T05:36:40;12.57;;;7.80;;
7703;SDS011;3894;49.700;10.770;2023-06-10T05:39:06;11.32;;;7.68;;
7703;SDS011;3894;49.700;10.770;2023-06-10T05:41:32;15.18;;;8.40;;
7703;SDS011;3894;49.700;10.770;2023-06-10T05:43:57;13.45;;;8.32;;
7703;SDS011;3894;49.700;10.770;2023-06-10T05:46:23;9.23;;;6.75;;
7703;SDS011;3894;49.700;10.770;2023-06-10T05:48:49;12.05;;;7.90;;
7703;SDS011;3894;49.700;10.770;2023-06-10T05:51:14;10.68;;;7.35;;
7703;SDS011;3894;49.700;10.770;2023-06-10T05:53:40;11.05;;;7.65;;
7703;SDS011;3894;49.700;10.770;2023-06-10T05:56:05;10.38;;;7.28;;
7703;SDS011;3894;49.700;10.770;2023-06-10T05:58:32;11.10;;;7.32;;
7703;SDS011;3894;49.700;10.770;2023-06-10T06:00:58;10.23;;;7.00;;
7703;SDS011;3894;49.700;10.770;2023-06-10T06:03:25;10.90;;;6.88;;
7703;SDS011;3894;49.700;10.770;2023-06-10T06:05:53;10.98;;;7.78;;
7703;SDS011;3894;49.700;10.770;2023-06-10T06:08:18;11.73;;;7.53;;
7703;SDS011;3894;49.700;10.770;2023-06-10T06:10:46;9.90;;;7.20;;
7703;SDS011;3894;49.700;10.770;2023-06-10T06:13:15;16.70;;;7.68;;
7703;SDS011;3894;49.700;10.770;2023-06-10T06:15:41;9.45;;;7.28;;
7703;SDS011;3894;49.700;10.770;2023-06-10T06:18:06;12.18;;;7.38;;
7703;SDS011;3894;49.700;10.770;2023-06-10T06:20:32;11.77;;;6.65;;
7703;SDS011;3894;49.700;10.770;2023-06-10T06:22:57;9.88;;;6.68;;
7703;SDS011;3894;49.700;10.770;2023-06-10T06:25:23;9.85;;;6.38;;
7703;SDS011;3894;49.700;10.770;2023-06-10T06:27:48;11.60;;;6.97;;
7703;SDS011;3894;49.700;10.770;2023-06-10T06:30:14;11.70;;;7.43;;
7703;SDS011;3894;49.700;10.770;2023-06-10T06:32:40;11.07;;;7.40;;
7703;SDS011;3894;49.700;10.770;2023-06-10T06:35:05;10.23;;;6.97;;
7703;SDS011;3894;49.700;10.770;2023-06-10T06:37:33;10.02;;;7.15;;
7703;SDS011;3894;49.700;10.770;2023-06-10T06:40:00;10.50;;;7.07;;
7703;SDS011;3894;49.700;10.770;2023-06-10T06:42:27;8.88;;;6.50;;
7703;SDS011;3894;49.700;10.770;2023-06-10T06:44:54;10.57;;;6.90;;
7703;SDS011;3894;49.700;10.770;2023-06-10T06:47:20;11.35;;;6.90;;
7703;SDS011;3894;49.700;10.770;2023-06-10T06:49:46;9.27;;;6.95;;
7703;SDS011;3894;49.700;10.770;2023-06-10T06:52:14;9.07;;;6.35;;
7703;SDS011;3894;49.700;10.770;2023-06-10T06:54:40;11.23;;;7.18;;
7703;SDS011;3894;49.700;10.770;2023-06-10T06:57:06;9.88;;;6.82;;
7703;SDS011;3894;49.700;10.770;2023-06-10T06:59:33;9.45;;;6.85;;
7703;SDS011;3894;49.700;10.770;2023-06-10T07:01:58;8.48;;;6.20;;
7703;SDS011;3894;49.700;10.770;2023-06-10T07:04:24;11.20;;;8.02;;
7703;SDS011;3894;49.700;10.770;2023-06-10T07:06:50;11.18;;;7.32;;
7703;SDS011;3894;49.700;10.770;2023-06-10T07:09:16;8.68;;;6.30;;
7703;SDS011;3894;49.700;10.770;2023-06-10T07:11:41;9.82;;;6.50;;
7703;SDS011;3894;49.700;10.770;2023-06-10T07:14:07;11.27;;;6.40;;
7703;SDS011;3894;49.700;10.770;2023-06-10T07:16:34;9.40;;;6.07;;
7703;SDS011;3894;49.700;10.770;2023-06-10T07:19:01;11.57;;;7.13;;
7703;SDS011;3894;49.700;10.770;2023-06-10T07:21:27;13.48;;;6.72;;
7703;SDS011;3894;49.700;10.770;2023-06-10T07:23:53;11.43;;;6.45;;
7703;SDS011;3894;49.700;10.770;2023-06-10T07:26:19;9.30;;;7.07;;
7703;SDS011;3894;49.700;10.770;2023-06-10T07:28:46;9.45;;;6.03;;
7703;SDS011;3894;49.700;10.770;2023-06-10T07:31:12;8.40;;;5.90;;
7703;SDS011;3894;49.700;10.770;2023-06-10T07:33:37;9.15;;;6.60;;
7703;SDS011;3894;49.700;10.770;2023-06-10T07:36:04;9.68;;;5.55;;
7703;SDS011;3894;49.700;10.770;2023-06-10T07:38:31;9.55;;;6.38;;
7703;SDS011;3894;49.700;10.770;2023-06-10T07:40:56;8.90;;;6.32;;
7703;SDS011;3894;49.700;10.770;2023-06-10T07:43:22;8.88;;;5.90;;
7703;SDS011;3894;49.700;10.770;2023-06-10T07:45:48;8.85;;;5.80;;
7703;SDS011;3894;49.700;10.770;2023-06-10T07:48:14;9.32;;;5.20;;
7703;SDS011;3894;49.700;10.770;2023-06-10T07:50:39;7.82;;;4.88;;
7703;SDS011;3894;49.700;10.770;2023-06-10T07:53:06;7.75;;;5.07;;
7703;SDS011;3894;49.700;10.770;2023-06-10T07:55:32;6.90;;;4.72;;
7703;SDS011;3894;49.700;10.770;2023-06-10T07:57:57;8.77;;;5.05;;
7703;SDS011;3894;49.700;10.770;2023-06-10T08:00:23;8.18;;;5.05;;
7703;SDS011;3894;49.700;10.770;2023-06-10T08:02:49;6.97;;;4.68;;
7703;SDS011;3894;49.700;10.770;2023-06-10T08:05:16;8.57;;;4.70;;
7703;SDS011;3894;49.700;10.770;2023-06-10T08:07:42;8.02;;;4.90;;
7703;SDS011;3894;49.700;10.770;2023-06-10T08:10:08;7.30;;;4.93;;
7703;SDS011;3894;49.700;10.770;2023-06-10T08:12:34;6.78;;;4.03;;
7703;SDS011;3894;49.700;10.770;2023-06-10T08:15:03;7.00;;;4.05;;
7703;SDS011;3894;49.700;10.770;2023-06-10T08:17:29;6.70;;;4.13;;
7703;SDS011;3894;49.700;10.770;2023-06-10T08:19:55;8.15;;;4.72;;
7703;SDS011;3894;49.700;10.770;2023-06-10T08:22:21;6.90;;;4.80;;
7703;SDS011;3894;49.700;10.770;2023-06-10T08:24:48;6.47;;;4.45;;
7703;SDS011;3894;49.700;10.770;2023-06-10T08:27:13;8.43;;;4.25;;
7703;SDS011;3894;49.700;10.770;2023-06-10T08:29:39;6.75;;;4.25;;
7703;SDS011;3894;49.700;10.770;2023-06-10T08:32:05;6.15;;;3.72;;
7703;SDS011;3894;49.700;10.770;2023-06-10T08:34:34;5.95;;;3.58;;
7703;SDS011;3894;49.700;10.770;2023-06-10T08:37:00;6.18;;;3.80;;
7703;SDS011;3894;49.700;10.770;2023-06-10T08:39:28;7.00;;;4.22;;
7703;SDS011;3894;49.700;10.770;2023-06-10T08:44:29;6.78;;;4.13;;
7703;SDS011;3894;49.700;10.770;2023-06-10T08:46:56;8.00;;;4.30;;
7703;SDS011;3894;49.700;10.770;2023-06-10T08:49:29;6.25;;;3.78;;
7703;SDS011;3894;49.700;10.770;2023-06-10T08:51:59;6.40;;;3.42;;
7703;SDS011;3894;49.700;10.770;2023-06-10T08:54:28;7.00;;;3.65;;
7703;SDS011;3894;49.700;10.770;2023-06-10T08:56:57;7.57;;;4.10;;
7703;SDS011;3894;49.700;10.770;2023-06-10T08:59:25;6.10;;;4.18;;
7703;SDS011;3894;49.700;10.770;2023-06-10T09:01:51;5.68;;;3.63;;
7703;SDS011;3894;49.700;10.770;2023-06-10T09:04:18;6.22;;;3.35;;
7703;SDS011;3894;49.700;10.770;2023-06-10T09:09:11;7.90;;;3.88;;
7703;SDS011;3894;49.700;10.770;2023-06-10T09:11:37;6.72;;;3.60;;
7703;SDS011;3894;49.700;10.770;2023-06-10T09:14:03;6.05;;;3.75;;
7703;SDS011;3894;49.700;10.770;2023-06-10T09:16:29;5.78;;;3.17;;
7703;SDS011;3894;49.700;10.770;2023-06-10T09:18:55;7.28;;;3.55;;
7703;SDS011;3894;49.700;10.770;2023-06-10T09:21:22;6.47;;;3.60;;
7703;SDS011;3894;49.700;10.770;2023-06-10T09:23:48;5.95;;;3.10;;
7703;SDS011;3894;49.700;10.770;2023-06-10T09:26:14;6.43;;;3.15;;
7703;SDS011;3894;49.700;10.770;2023-06-10T09:28:41;6.00;;;3.17;;
7703;SDS011;3894;49.700;10.770;2023-06-10T09:31:08;5.13;;;3.20;;
7703;SDS011;3894;49.700;10.770;2023-06-10T09:33:38;5.35;;;3.15;;
7703;SDS011;3894;49.700;10.770;2023-06-10T09:36:09;5.40;;;3.30;;
7703;SDS011;3894;49.700;10.770;2023-06-10T09:38:35;5.43;;;3.05;;
7703;SDS011;3894;49.700;10.770;2023-06-10T09:41:01;5.90;;;3.33;;
7703;SDS011;3894;49.700;10.770;2023-06-10T09:43:39;5.55;;;3.10;;
7703;SDS011;3894;49.700;10.770;2023-06-10T09:46:13;5.70;;;3.33;;
7703;SDS011;3894;49.700;10.770;2023-06-10T09:48:43;5.85;;;3.05;;
7703;SDS011;3894;49.700;10.770;2023-06-10T09:53:38;5.38;;;2.85;;
7703;SDS011;3894;49.700;10.770;2023-06-10T09:56:04;5.45;;;3.05;;
7703;SDS011;3894;49.700;10.770;2023-06-10T09:58:37;6.28;;;3.38;;
7703;SDS011;3894;49.700;10.770;2023-06-10T10:01:10;5.30;;;3.08;;
7703;SDS011;3894;49.700;10.770;2023-06-10T10:03:48;5.72;;;3.30;;
7703;SDS011;3894;49.700;10.770;2023-06-10T10:06:15;6.75;;;2.72;;
7703;SDS011;3894;49.700;10.770;2023-06-10T10:08:42;5.00;;;3.00;;
7703;SDS011;3894;49.700;10.770;2023-06-10T10:11:08;4.97;;;2.83;;
7703;SDS011;3894;49.700;10.770;2023-06-10T10:13:34;5.40;;;3.50;;
7703;SDS011;3894;49.700;10.770;2023-06-10T10:16:09;5.20;;;2.97;;
7703;SDS011;3894;49.700;10.770;2023-06-10T10:18:41;6.47;;;3.80;;
7703;SDS011;3894;49.700;10.770;2023-06-10T10:21:13;5.82;;;2.90;;
7703;SDS011;3894;49.700;10.770;2023-06-10T10:23:55;6.32;;;3.47;;
7703;SDS011;3894;49.700;10.770;2023-06-10T10:26:30;5.05;;;2.92;;
7703;SDS011;3894;49.700;10.770;2023-06-10T10:29:10;5.95;;;3.22;;
7703;SDS011;3894;49.700;10.770;2023-06-10T10:31:42;6.00;;;2.83;;
7703;SDS011;3894;49.700;10.770;2023-06-10T10:35:00;6.82;;;3.88;;
7703;SDS011;3894;49.700;10.770;2023-06-10T10:37:06;6.78;;;3.38;;
7703;SDS011;3894;49.700;10.770;2023-06-10T10:39:32;5.15;;;3.03;;
7703;SDS011;3894;49.700;10.770;2023-06-10T10:41:59;5.25;;;3.08;;
7703;SDS011;3894;49.700;10.770;2023-06-10T10:44:25;6.22;;;2.85;;
7703;SDS011;3894;49.700;10.770;2023-06-10T10:46:52;6.65;;;3.17;;
7703;SDS011;3894;49.700;10.770;2023-06-10T10:49:19;6.05;;;3.00;;
7703;SDS011;3894;49.700;10.770;2023-06-10T10:51:55;5.50;;;3.08;;
7703;SDS011;3894;49.700;10.770;2023-06-10T10:54:31;5.82;;;2.70;;
7703;SDS011;3894;49.700;10.770;2023-06-10T10:59:51;4.82;;;2.60;;
7703;SDS011;3894;49.700;10.770;2023-06-10T11:02:32;5.78;;;2.22;;
7703;SDS011;3894;49.700;10.770;2023-06-10T11:05:13;5.53;;;2.80;;
7703;SDS011;3894;49.700;10.770;2023-06-10T11:07:40;4.95;;;2.65;;
7703;SDS011;3894;49.700;10.770;2023-06-10T11:10:16;5.35;;;2.58;;
7703;SDS011;3894;49.700;10.770;2023-06-10T11:15:11;5.45;;;2.78;;
7703;SDS011;3894;49.700;10.770;2023-06-10T11:17:37;5.18;;;2.60;;
7703;SDS011;3894;49.700;10.770;2023-06-10T11:20:03;5.15;;;2.80;;
7703;SDS011;3894;49.700;10.770;2023-06-10T11:22:30;4.90;;;2.45;;
7703;SDS011;3894;49.700;10.770;2023-06-10T11:24:56;5.45;;;2.22;;
7703;SDS011;3894;49.700;10.770;2023-06-10T11:27:24;4.60;;;2.30;;
7703;SDS011;3894;49.700;10.770;2023-06-10T11:32:29;5.47;;;2.50;;
7703;SDS011;3894;49.700;10.770;2023-06-10T11:34:56;5.40;;;2.88;;
7703;SDS011;3894;49.700;10.770;2023-06-10T11:37:22;4.50;;;2.42;;
7703;SDS011;3894;49.700;10.770;2023-06-10T11:39:52;4.75;;;2.20;;
7703;SDS011;3894;49.700;10.770;2023-06-10T11:42:18;5.10;;;2.55;;
7703;SDS011;3894;49.700;10.770;2023-06-10T11:44:51;6.45;;;2.20;;
7703;SDS011;3894;49.700;10.770;2023-06-10T11:47:18;5.53;;;3.05;;
7703;SDS011;3894;49.700;10.770;2023-06-10T11:49:45;4.40;;;2.30;;
7703;SDS011;3894;49.700;10.770;2023-06-10T11:52:11;5.53;;;1.88;;
7703;SDS011;3894;49.700;10.770;2023-06-10T11:54:38;4.95;;;2.38;;
7703;SDS011;3894;49.700;10.770;2023-06-10T11:57:04;4.68;;;2.58;;
7703;SDS011;3894;49.700;10.770;2023-06-10T11:59:30;4.55;;;2.13;;
7703;SDS011;3894;49.700;10.770;2023-06-10T12:01:56;4.20;;;2.05;;
7703;SDS011;3894;49.700;10.770;2023-06-10T12:04:22;4.75;;;2.13;;
7703;SDS011;3894;49.700;10.770;2023-06-10T12:06:51;4.97;;;1.83;;
7703;SDS011;3894;49.700;10.770;2023-06-10T12:12:05;5.57;;;2.35;;
7703;SDS011;3894;49.700;10.770;2023-06-10T12:14:51;4.07;;;1.88;;
7703;SDS011;3894;49.700;10.770;2023-06-10T12:19:55;4.95;;;2.47;;
7703;SDS011;3894;49.700;10.770;2023-06-10T12:22:22;4.32;;;1.98;;
7703;SDS011;3894;49.700;10.770;2023-06-10T12:24:59;4.93;;;2.30;;
7703;SDS011;3894;49.700;10.770;2023-06-10T12:27:29;5.10;;;2.55;;
7703;SDS011;3894;49.700;10.770;2023-06-10T12:33:02;5.07;;;2.58;;
7703;SDS011;3894;49.700;10.770;2023-06-10T12:35:23;5.43;;;2.05;;
7703;SDS011;3894;49.700;10.770;2023-06-10T12:40:33;4.90;;;1.92;;
7703;SDS011;3894;49.700;10.770;2023-06-10T12:43:01;4.32;;;2.50;;
7703;SDS011;3894;49.700;10.770;2023-06-10T12:45:34;5.15;;;2.20;;
7703;SDS011;3894;49.700;10.770;2023-06-10T12:50:34;4.65;;;2.33;;
7703;SDS011;3894;49.700;10.770;2023-06-10T12:53:05;5.03;;;2.38;;
7703;SDS011;3894;49.700;10.770;2023-06-10T12:55:31;4.07;;;2.08;;
7703;SDS011;3894;49.700;10.770;2023-06-10T12:57:58;5.75;;;2.63;;
7703;SDS011;3894;49.700;10.770;2023-06-10T13:00:25;4.55;;;2.38;;
7703;SDS011;3894;49.700;10.770;2023-06-10T13:02:54;4.32;;;2.83;;
7703;SDS011;3894;49.700;10.770;2023-06-10T13:05:20;5.50;;;2.53;;
7703;SDS011;3894;49.700;10.770;2023-06-10T13:07:46;4.72;;;2.53;;
7703;SDS011;3894;49.700;10.770;2023-06-10T13:10:13;4.32;;;2.10;;
7703;SDS011;3894;49.700;10.770;2023-06-10T13:12:39;4.03;;;1.90;;
7703;SDS011;3894;49.700;10.770;2023-06-10T13:15:05;5.57;;;1.92;;
7703;SDS011;3894;49.700;10.770;2023-06-10T13:17:31;4.22;;;2.38;;
7703;SDS011;3894;49.700;10.770;2023-06-10T13:19:59;5.25;;;2.20;;
7703;SDS011;3894;49.700;10.770;2023-06-10T13:22:24;4.93;;;2.22;;
7703;SDS011;3894;49.700;10.770;2023-06-10T13:24:51;5.00;;;2.15;;
7703;SDS011;3894;49.700;10.770;2023-06-10T13:27:17;4.38;;;1.92;;
7703;SDS011;3894;49.700;10.770;2023-06-10T13:29:42;4.30;;;2.03;;
7703;SDS011;3894;49.700;10.770;2023-06-10T13:32:08;4.15;;;1.98;;
7703;SDS011;3894;49.700;10.770;2023-06-10T13:34:35;3.70;;;1.65;;
7703;SDS011;3894;49.700;10.770;2023-06-10T13:37:01;5.40;;;2.55;;
7703;SDS011;3894;49.700;10.770;2023-06-10T13:39:29;4.13;;;2.08;;
7703;SDS011;3894;49.700;10.770;2023-06-10T13:41:54;4.47;;;2.25;;
7703;SDS011;3894;49.700;10.770;2023-06-10T13:44:20;5.65;;;2.17;;
7703;SDS011;3894;49.700;10.770;2023-06-10T13:46:45;4.88;;;2.05;;
7703;SDS011;3894;49.700;10.770;2023-06-10T13:49:11;4.60;;;2.58;;
7703;SDS011;3894;49.700;10.770;2023-06-10T13:51:36;4.93;;;2.88;;
7703;SDS011;3894;49.700;10.770;2023-06-10T13:54:02;4.47;;;1.83;;
7703;SDS011;3894;49.700;10.770;2023-06-10T13:56:27;4.25;;;2.25;;
7703;SDS011;3894;49.700;10.770;2023-06-10T13:58:53;4.97;;;2.15;;
7703;SDS011;3894;49.700;10.770;2023-06-10T14:01:19;5.50;;;2.28;;
7703;SDS011;3894;49.700;10.770;2023-06-10T14:03:44;4.15;;;2.30;;
7703;SDS011;3894;49.700;10.770;2023-06-10T14:06:10;4.78;;;1.98;;
7703;SDS011;3894;49.700;10.770;2023-06-10T14:08:38;4.72;;;1.90;;
7703;SDS011;3894;49.700;10.770;2023-06-10T14:11:03;4.30;;;1.70;;
7703;SDS011;3894;49.700;10.770;2023-06-10T14:13:29;4.10;;;2.03;;
7703;SDS011;3894;49.700;10.770;2023-06-10T14:15:54;3.92;;;1.73;;
7703;SDS011;3894;49.700;10.770;2023-06-10T14:18:20;3.72;;;1.42;;
7703;SDS011;3894;49.700;10.770;2023-06-10T14:20:45;3.20;;;1.25;;
7703;SDS011;3894;49.700;10.770;2023-06-10T14:23:11;3.20;;;1.33;;
7703;SDS011;3894;49.700;10.770;2023-06-10T14:25:37;3.55;;;1.33;;
7703;SDS011;3894;49.700;10.770;2023-06-10T14:28:02;4.20;;;1.83;;
7703;SDS011;3894;49.700;10.770;2023-06-10T14:30:28;3.67;;;1.52;;
7703;SDS011;3894;49.700;10.770;2023-06-10T14:32:53;5.07;;;2.38;;
7703;SDS011;3894;49.700;10.770;2023-06-10T14:35:19;5.20;;;2.47;;
7703;SDS011;3894;49.700;10.770;2023-06-10T14:37:46;5.80;;;3.03;;
7703;SDS011;3894;49.700;10.770;2023-06-10T14:40:11;5.78;;;2.80;;
7703;SDS011;3894;49.700;10.770;2023-06-10T14:42:37;4.75;;;2.33;;
7703;SDS011;3894;49.700;10.770;2023-06-10T14:45:03;6.85;;;3.15;;
7703;SDS011;3894;49.700;10.770;2023-06-10T14:47:30;4.82;;;2.97;;
7703;SDS011;3894;49.700;10.770;2023-06-10T14:49:56;6.78;;;3.38;;
7703;SDS011;3894;49.700;10.770;2023-06-10T14:52:21;5.72;;;3.40;;
7703;SDS011;3894;49.700;10.770;2023-06-10T14:54:47;6.63;;;3.20;;
7703;SDS011;3894;49.700;10.770;2023-06-10T14:57:12;13.95;;;4.60;;
7703;SDS011;3894;49.700;10.770;2023-06-10T14:59:38;14.20;;;6.20;;
7703;SDS011;3894;49.700;10.770;2023-06-10T15:02:03;7.97;;;4.70;;
7703;SDS011;3894;49.700;10.770;2023-06-10T15:04:29;9.25;;;5.22;;
7703;SDS011;3894;49.700;10.770;2023-06-10T15:06:55;9.82;;;4.55;;
7703;SDS011;3894;49.700;10.770;2023-06-10T15:09:20;9.63;;;4.93;;
7703;SDS011;3894;49.700;10.770;2023-06-10T15:11:46;7.28;;;4.68;;
7703;SDS011;3894;49.700;10.770;2023-06-10T15:14:11;9.98;;;4.65;;
7703;SDS011;3894;49.700;10.770;2023-06-10T15:16:37;8.32;;;5.07;;
7703;SDS011;3894;49.700;10.770;2023-06-10T15:19:02;8.07;;;4.78;;
7703;SDS011;3894;49.700;10.770;2023-06-10T15:21:28;8.60;;;5.60;;
7703;SDS011;3894;49.700;10.770;2023-06-10T15:23:54;7.47;;;4.50;;
7703;SDS011;3894;49.700;10.770;2023-06-10T15:26:20;9.75;;;4.85;;
7703;SDS011;3894;49.700;10.770;2023-06-10T15:28:45;8.40;;;5.63;;